Time;durP1;ratioP1;P1;durP2;ratioP2;P2;SDS_P1;SDS_P2;PMS_P1;PMS_P2;Temp;Humidity;BMP_temperature;BMP_pressure;BME280_temperature;BME280_humidity;BME280_pressure;Samples;Min_cycle;Max_cycle;Signal;HPM_P1;HPM_P2
2023/08/25 00:01:00;;;;;;;8.25;4.32;;;24.90;62.00;;;;;;5050758;28;20071;-49
2023/08/25 00:03:26;;;;;;;7.03;4.13;;;24.90;61.60;;;;;;5032536;28;20040;-46
2023/08/25 00:05:55;;;;;;;8.85;5.07;;;24.90;62.40;;;;;;5050561;28;20017;-49
2023/08/25 00:08:21;;;;;;;6.53;4.43;;;24.90;61.70;;;;;;5032819;28;20064;-47
2023/08/25 00:10:47;;;;;;;9.07;4.68;;;24.90;61.50;;;;;;5033139;28;20032;-48
2023/08/25 00:13:14;;;;;;;8.10;4.57;;;24.90;62.00;;;;;;5032520;28;20024;-49
2023/08/25 00:15:41;;;;;;;10.60;4.68;;;24.90;61.60;;;;;;5050975;28;20155;-46
2023/08/25 00:18:07;;;;;;;9.60;4.18;;;24.90;61.50;;;;;;5053011;28;20029;-45
2023/08/25 00:20:33;;;;;;;8.93;4.68;;;24.90;61.20;;;;;;5054646;28;20039;-48
2023/08/25 00:22:59;;;;;;;6.97;4.18;;;24.90;61.90;;;;;;5054574;28;20477;-48
2023/08/25 00:25:25;;;;;;;8.35;4.65;;;24.90;61.50;;;;;;5036635;28;20032;-52
2023/08/25 00:27:51;;;;;;;7.65;4.38;;;24.90;60.90;;;;;;5054024;28;20068;-54
2023/08/25 00:30:16;;;;;;;7.63;4.30;;;24.90;60.80;;;;;;5036632;28;20489;-54
2023/08/25 00:32:42;;;;;;;10.90;4.68;;;24.90;61.70;;;;;;5054148;28;20021;-53
2023/08/25 00:35:08;;;;;;;8.35;4.50;;;24.90;61.10;;;;;;5036560;28;20037;-49
2023/08/25 00:37:34;;;;;;;9.82;4.88;;;24.90;61.20;;;;;;5054309;28;20443;-52
2023/08/25 00:40:00;;;;;;;7.40;4.28;;;24.90;61.00;;;;;;5054451;28;20025;-54
2023/08/25 00:42:26;;;;;;;6.75;4.28;;;24.90;60.90;;;;;;5054379;28;20018;-50
2023/08/25 00:44:52;;;;;;;6.63;4.18;;;24.90;60.80;;;;;;5053912;28;20067;-50
2023/08/25 00:47:19;;;;;;;8.10;4.30;;;24.90;60.60;;;;;;5036463;28;20025;-51
2023/08/25 00:49:46;;;;;;;6.10;4.10;;;24.90;60.50;;;;;;5054110;28;20067;-52
2023/08/25 00:52:14;;;;;;;5.88;4.20;;;24.90;60.50;;;;;;5036610;28;20037;-53
2023/08/25 00:54:40;;;;;;;7.95;4.18;;;24.90;60.10;;;;;;5036188;28;20045;-51
2023/08/25 00:57:07;;;;;;;7.22;4.28;;;24.90;60.80;;;;;;5053819;28;20032;-51
2023/08/25 00:59:33;;;;;;;7.35;4.10;;;24.80;60.10;;;;;;5017551;28;20044;-53
2023/08/25 01:01:59;;;;;;;9.35;4.30;;;24.90;61.00;;;;;;5052832;28;20374;-51
2023/08/25 01:04:25;;;;;;;7.95;4.32;;;24.90;60.50;;;;;;5051910;28;20361;-49
2023/08/25 01:06:51;;;;;;;10.35;4.00;;;24.90;60.20;;;;;;5052516;28;20063;-47
2023/08/25 01:09:18;;;;;;;9.13;4.43;;;24.80;60.10;;;;;;5032950;28;20274;-54
2023/08/25 01:11:59;;;;;;;6.13;3.67;;;24.90;60.30;;;;;;5052369;28;20048;-54
2023/08/25 01:14:49;;;;;;;6.97;4.40;;;24.90;60.90;;;;;;5051274;28;20032;-54
2023/08/25 01:17:26;;;;;;;8.45;4.35;;;24.80;60.30;;;;;;5004106;28;20048;-53
2023/08/25 01:20:00;;;;;;;6.38;4.50;;;24.80;60.00;;;;;;5052348;28;20555;-52
2023/08/25 01:22:57;;;;;;;6.85;4.28;;;24.80;60.00;;;;;;5052136;28;20047;-55
2023/08/25 01:25:26;;;;;;;7.40;4.03;;;24.80;60.00;;;;;;5050694;28;20025;-53
2023/08/25 01:27:55;;;;;;;6.90;4.45;;;24.80;60.80;;;;;;5034396;28;20052;-51
2023/08/25 01:30:26;;;;;;;7.07;3.97;;;24.90;60.20;;;;;;5033879;28;20503;-51
2023/08/25 01:32:53;;;;;;;9.15;4.22;;;24.80;60.40;;;;;;5035565;28;20435;-54
2023/08/25 01:35:38;;;;;;;8.50;4.88;;;24.80;60.20;;;;;;5035378;28;20037;-54
2023/08/25 01:38:21;;;;;;;10.63;4.75;;;24.80;60.70;;;;;;5053154;28;20478;-51
2023/08/25 01:40:52;;;;;;;8.90;4.60;;;24.80;60.70;;;;;;5053317;28;20523;-49
2023/08/25 01:43:22;;;;;;;8.32;4.10;;;24.80;60.10;;;;;;5052454;28;20069;-50
2023/08/25 01:45:49;;;;;;;10.35;5.15;;;24.80;60.80;;;;;;5035538;28;20053;-48
2023/08/25 01:48:16;;;;;;;9.80;4.70;;;24.80;60.10;;;;;;5034199;28;20061;-47
2023/08/25 01:50:43;;;;;;;11.45;4.35;;;24.80;60.60;;;;;;5052612;28;20033;-53
2023/08/25 01:53:09;;;;;;;8.23;4.78;;;24.80;60.50;;;;;;5029238;28;20028;-50
2023/08/25 01:55:35;;;;;;;10.38;4.68;;;24.80;60.10;;;;;;5053248;28;20381;-49
2023/08/25 01:58:02;;;;;;;10.27;4.55;;;24.80;60.10;;;;;;5034941;28;20054;-52
2023/08/25 02:00:28;;;;;;;9.30;4.45;;;24.80;60.40;;;;;;5052860;28;20523;-46
2023/08/25 02:02:55;;;;;;;7.93;4.25;;;24.80;60.50;;;;;;5052580;28;20017;-51
2023/08/25 02:05:22;;;;;;;9.80;3.97;;;24.80;60.30;;;;;;5034972;28;20083;-53
2023/08/25 02:07:48;;;;;;;9.40;4.97;;;24.80;60.60;;;;;;5052686;28;20025;-52
2023/08/25 02:10:14;;;;;;;7.82;4.70;;;24.80;60.50;;;;;;5052775;28;20029;-53
2023/08/25 02:12:39;;;;;;;7.75;5.05;;;24.80;60.40;;;;;;5018322;28;20033;-53
2023/08/25 02:15:06;;;;;;;8.45;5.05;;;24.80;60.80;;;;;;5034414;28;20055;-49
2023/08/25 02:17:32;;;;;;;9.25;5.38;;;24.80;60.50;;;;;;5034629;28;20029;-45
2023/08/25 02:19:58;;;;;;;9.88;5.28;;;24.90;60.60;;;;;;5034765;28;20025;-51
2023/08/25 02:22:24;;;;;;;6.50;4.60;;;24.80;60.60;;;;;;5052325;28;20500;-48
2023/08/25 02:24:50;;;;;;;6.57;4.55;;;24.80;60.60;;;;;;5052308;28;20025;-48
2023/08/25 02:27:16;;;;;;;8.38;5.18;;;24.80;60.70;;;;;;5034459;28;20081;-48
2023/08/25 02:29:42;;;;;;;6.45;4.90;;;24.80;60.70;;;;;;5052426;28;20025;-48
2023/08/25 02:32:07;;;;;;;7.10;4.93;;;24.80;60.80;;;;;;5052337;28;20033;-51
2023/08/25 02:34:33;;;;;;;8.50;4.75;;;24.90;60.90;;;;;;5073170;23;20128;-47
2023/08/25 02:36:59;;;;;;;10.48;5.15;;;24.80;60.80;;;;;;5053895;28;20028;-49
2023/08/25 02:39:25;;;;;;;12.38;5.30;;;24.80;60.90;;;;;;5072064;28;20028;-47
2023/08/25 02:41:51;;;;;;;7.57;4.47;;;24.80;60.90;;;;;;5053731;28;20024;-49
2023/08/25 02:44:16;;;;;;;8.30;4.65;;;24.80;61.00;;;;;;5070054;28;20029;-47
2023/08/25 02:46:43;;;;;;;6.68;4.70;;;24.80;61.10;;;;;;5051985;28;20021;-48
2023/08/25 02:49:09;;;;;;;8.07;4.40;;;24.80;61.10;;;;;;5053479;28;20052;-49
2023/08/25 02:51:34;;;;;;;9.45;5.03;;;24.90;61.20;;;;;;5033944;28;20037;-47
2023/08/25 02:54:00;;;;;;;8.07;4.75;;;24.80;61.20;;;;;;5059215;28;20024;-53
2023/08/25 02:56:26;;;;;;;8.55;5.28;;;24.80;61.30;;;;;;5050857;28;20029;-54
2023/08/25 02:58:52;;;;;;;8.50;5.00;;;24.80;61.30;;;;;;5068268;28;20028;-54
2023/08/25 03:01:18;;;;;;;11.98;4.80;;;24.90;61.40;;;;;;5062957;28;20029;-48
2023/08/25 03:03:45;;;;;;;9.00;5.00;;;24.80;61.30;;;;;;5066850;28;20029;-53
2023/08/25 03:06:13;;;;;;;6.85;4.57;;;24.80;61.40;;;;;;5033923;28;20029;-52
2023/08/25 03:08:39;;;;;;;8.80;4.68;;;24.80;61.40;;;;;;5033710;28;20021;-52
2023/08/25 03:11:05;;;;;;;10.68;4.68;;;24.80;61.40;;;;;;5051436;28;20091;-48
2023/08/25 03:13:31;;;;;;;10.70;5.25;;;24.80;62.10;;;;;;5033470;28;20228;-47
2023/08/25 03:15:59;;;;;;;11.90;5.38;;;24.80;61.60;;;;;;5051672;28;20021;-50
2023/08/25 03:18:26;;;;;;;10.23;4.80;;;24.80;62.20;;;;;;5051478;28;20029;-49
2023/08/25 03:20:53;;;;;;;8.77;4.90;;;24.80;61.60;;;;;;5051319;28;20029;-54
2023/08/25 03:23:20;;;;;;;8.23;4.85;;;24.80;61.60;;;;;;5066579;28;20103;-51
2023/08/25 03:25:46;;;;;;;8.88;4.72;;;24.80;61.70;;;;;;5033502;28;20033;-51
2023/08/25 03:28:12;;;;;;;7.88;4.88;;;24.80;61.80;;;;;;5033034;28;20036;-52
2023/08/25 03:30:38;;;;;;;10.75;4.75;;;24.80;61.80;;;;;;5051489;28;20074;-51
2023/08/25 03:33:05;;;;;;;12.98;5.60;;;24.80;61.90;;;;;;5033613;28;20025;-49
2023/08/25 03:35:35;;;;;;;8.55;4.78;;;24.80;61.90;;;;;;5066249;28;20036;-48
2023/08/25 03:38:02;;;;;;;8.10;4.75;;;24.80;62.60;;;;;;5032969;28;20033;-52
2023/08/25 03:40:28;;;;;;;8.55;4.88;;;24.80;62.00;;;;;;5057449;28;20040;-47
2023/08/25 03:42:54;;;;;;;11.40;5.03;;;24.80;62.00;;;;;;5043330;28;20021;-48
2023/08/25 03:45:21;;;;;;;12.90;5.40;;;24.80;62.00;;;;;;5053165;28;20031;-51
2023/08/25 03:47:47;;;;;;;10.00;5.07;;;24.80;62.10;;;;;;5071255;28;20029;-52
2023/08/25 03:50:13;;;;;;;6.63;4.97;;;24.80;62.10;;;;;;5066918;28;20036;-49
2023/08/25 03:52:39;;;;;;;9.52;5.20;;;24.80;62.20;;;;;;5034846;28;20083;-50
2023/08/25 03:55:05;;;;;;;12.20;5.35;;;24.80;62.20;;;;;;5054968;28;20029;-49
2023/08/25 03:57:32;;;;;;;9.07;5.18;;;24.80;62.20;;;;;;5061720;28;20495;-51
2023/08/25 03:59:58;;;;;;;10.50;5.57;;;24.80;62.20;;;;;;5056589;28;20033;-50
2023/08/25 04:02:24;;;;;;;8.90;5.22;;;24.80;62.30;;;;;;5075151;28;20070;-52
2023/08/25 04:04:51;;;;;;;9.68;5.95;;;24.80;62.30;;;;;;5056983;28;20031;-53
2023/08/25 04:07:19;;;;;;;7.88;6.00;;;24.80;62.30;;;;;;5064541;28;20036;-54
2023/08/25 04:09:45;;;;;;;10.88;6.53;;;24.80;62.30;;;;;;5055399;28;20036;-54
2023/08/25 04:12:14;;;;;;;12.18;6.88;;;24.80;62.30;;;;;;5053371;28;20259;-54
2023/08/25 04:14:40;;;;;;;10.73;6.93;;;24.80;62.30;;;;;;5054645;28;20450;-54
2023/08/25 04:17:06;;;;;;;12.85;6.97;;;24.80;62.30;;;;;;5036973;28;20039;-47
2023/08/25 04:19:31;;;;;;;11.38;6.38;;;24.80;62.40;;;;;;5070138;28;20059;-49
2023/08/25 04:21:59;;;;;;;9.40;6.03;;;24.80;62.40;;;;;;5037159;28;20486;-51
2023/08/25 04:24:24;;;;;;;10.82;6.22;;;24.80;62.50;;;;;;5036696;28;20028;-48
2023/08/25 04:26:51;;;;;;;8.85;5.30;;;24.80;62.50;;;;;;5036673;28;20033;-54
2023/08/25 04:29:16;;;;;;;9.27;6.10;;;24.80;62.60;;;;;;5056253;28;20163;-51
2023/08/25 04:31:43;;;;;;;10.15;6.13;;;24.80;62.70;;;;;;5036655;28;20041;-52
2023/08/25 04:34:13;;;;;;;8.70;5.50;;;24.80;62.80;;;;;;5036394;28;20573;-53
2023/08/25 04:36:39;;;;;;;11.57;5.63;;;24.80;62.80;;;;;;5036523;28;20029;-53
2023/08/25 04:39:05;;;;;;;9.80;5.53;;;24.70;62.80;;;;;;5036471;28;20024;-48
2023/08/25 04:41:32;;;;;;;10.38;5.72;;;24.80;62.80;;;;;;5069919;28;20591;-53
2023/08/25 04:43:59;;;;;;;11.93;5.75;;;24.80;62.80;;;;;;5036376;28;20051;-50
2023/08/25 04:46:28;;;;;;;11.32;6.30;;;24.80;62.90;;;;;;5040211;28;20037;-51
2023/08/25 04:48:54;;;;;;;10.07;6.03;;;24.80;62.90;;;;;;5020087;28;20029;-51
2023/08/25 04:51:19;;;;;;;10.55;5.82;;;24.80;62.90;;;;;;5054352;28;20499;-51
2023/08/25 04:53:45;;;;;;;11.32;6.38;;;24.80;62.90;;;;;;5049491;28;20048;-52
2023/08/25 04:56:11;;;;;;;10.35;6.53;;;24.80;62.90;;;;;;5056183;28;20407;-47
2023/08/25 04:58:37;;;;;;;11.65;7.05;;;24.70;62.90;;;;;;5038138;28;20036;-47
2023/08/25 05:01:04;;;;;;;14.77;8.38;;;24.80;62.90;;;;;;5035967;28;20021;-53
2023/08/25 05:03:30;;;;;;;13.50;7.05;;;24.80;62.90;;;;;;5035478;28;20051;-47
2023/08/25 05:05:55;;;;;;;13.60;7.45;;;24.80;62.90;;;;;;5036275;28;20483;-54
2023/08/25 05:08:24;;;;;;;12.70;7.30;;;24.80;62.90;;;;;;5041549;28;20036;-54
2023/08/25 05:10:51;;;;;;;12.93;7.18;;;24.80;62.90;;;;;;5055991;28;20036;-48
2023/08/25 05:13:17;;;;;;;12.23;6.78;;;24.70;62.90;;;;;;5055271;28;20025;-48
2023/08/25 05:15:43;;;;;;;13.02;7.13;;;24.80;62.90;;;;;;5055968;28;20545;-47
2023/08/25 05:18:11;;;;;;;15.35;7.75;;;24.80;62.80;;;;;;5055370;28;20033;-47
2023/08/25 05:20:37;;;;;;;12.13;7.70;;;24.80;62.80;;;;;;5054431;28;20617;-50
2023/08/25 05:23:05;;;;;;;12.00;6.40;;;24.80;62.80;;;;;;5048669;28;20044;-49
2023/08/25 05:25:31;;;;;;;15.75;7.15;;;24.70;62.80;;;;;;5055501;28;20483;-51
2023/08/25 05:27:57;;;;;;;13.82;7.30;;;24.70;62.80;;;;;;5050760;28;20038;-51
2023/08/25 05:30:23;;;;;;;13.25;6.70;;;24.70;62.70;;;;;;5055318;28;20048;-48
2023/08/25 05:32:51;;;;;;;11.30;6.65;;;24.80;62.80;;;;;;5055304;28;20020;-51
2023/08/25 05:35:20;;;;;;;14.05;5.85;;;24.80;62.80;;;;;;5073431;28;20032;-50
2023/08/25 05:37:49;;;;;;;10.70;5.43;;;24.70;62.70;;;;;;5055358;28;20028;-50
2023/08/25 05:40:15;;;;;;;15.60;6.03;;;24.80;62.80;;;;;;5072959;28;20492;-54
2023/08/25 05:42:42;;;;;;;9.95;5.95;;;24.70;62.80;;;;;;5055470;28;20025;-50
2023/08/25 05:45:08;;;;;;;11.05;6.40;;;24.70;62.80;;;;;;5046631;28;20032;-54
2023/08/25 05:47:34;;;;;;;9.65;5.95;;;24.80;62.80;;;;;;5051424;28;20025;-48
2023/08/25 05:50:00;;;;;;;12.65;6.28;;;24.80;62.90;;;;;;5055343;28;20039;-47
2023/08/25 05:52:26;;;;;;;11.80;6.65;;;24.80;62.90;;;;;;5072935;28;20365;-51
2023/08/25 05:54:51;;;;;;;17.88;7.90;;;24.80;62.90;;;;;;5072508;28;20029;-54
2023/08/25 05:57:17;;;;;;;14.23;8.13;;;24.70;62.80;;;;;;5072884;28;20025;-48
2023/08/25 05:59:43;;;;;;;14.18;7.97;;;24.80;62.90;;;;;;5054925;28;20033;-49
2023/08/25 06:02:09;;;;;;;15.32;9.13;;;24.80;63.00;;;;;;5072424;28;20032;-50
2023/08/25 06:04:34;;;;;;;17.05;9.60;;;24.80;63.00;;;;;;5072411;28;20508;-49
2023/08/25 06:07:00;;;;;;;14.88;8.40;;;24.80;63.00;;;;;;5072282;28;20063;-49
2023/08/25 06:09:26;;;;;;;13.65;7.78;;;24.80;63.00;;;;;;5072061;28;20023;-47
2023/08/25 06:11:53;;;;;;;12.15;7.68;;;24.80;63.00;;;;;;5072504;28;20035;-52
2023/08/25 06:14:19;;;;;;;15.50;7.72;;;24.80;63.00;;;;;;5071904;28;20032;-49
2023/08/25 06:16:45;;;;;;;15.73;7.43;;;24.80;63.10;;;;;;5071992;28;20063;-50
2023/08/25 06:19:12;;;;;;;14.18;8.05;;;24.80;63.00;;;;;;5070248;28;20471;-52
2023/08/25 06:21:38;;;;;;;14.18;7.90;;;24.80;63.00;;;;;;5072319;28;20021;-48
2023/08/25 06:24:04;;;;;;;13.38;7.93;;;24.80;63.10;;;;;;5071989;28;20027;-48
2023/08/25 06:26:30;;;;;;;13.43;8.40;;;24.80;63.00;;;;;;5072182;28;20264;-48
2023/08/25 06:28:56;;;;;;;17.50;8.82;;;24.80;62.90;;;;;;5071789;28;20067;-52
2023/08/25 06:31:22;;;;;;;13.30;7.53;;;24.80;63.00;;;;;;5072347;28;20387;-50
2023/08/25 06:33:48;;;;;;;13.48;7.85;;;24.80;62.90;;;;;;5070588;28;20512;-52
2023/08/25 06:36:14;;;;;;;12.57;7.45;;;24.80;63.00;;;;;;5072014;28;20119;-49
2023/08/25 06:38:40;;;;;;;12.35;6.80;;;24.80;63.00;;;;;;5072106;28;20028;-50
2023/08/25 06:41:05;;;;;;;12.55;7.13;;;24.80;63.00;;;;;;5071678;28;20059;-48
2023/08/25 06:43:31;;;;;;;15.65;7.20;;;24.80;62.90;;;;;;5071799;28;20021;-51
2023/08/25 06:45:57;;;;;;;12.27;7.53;;;24.80;62.90;;;;;;5065931;28;20067;-51
2023/08/25 06:48:23;;;;;;;12.68;7.35;;;24.80;62.90;;;;;;5066254;28;20029;-50
2023/08/25 06:50:49;;;;;;;12.00;6.90;;;24.80;62.90;;;;;;5072120;28;20064;-50
2023/08/25 06:53:15;;;;;;;11.38;6.70;;;24.80;62.90;;;;;;5071346;28;20109;-50
2023/08/25 06:55:41;;;;;;;11.70;7.20;;;24.80;63.50;;;;;;5071886;28;20024;-54
2023/08/25 06:58:07;;;;;;;12.18;6.57;;;24.80;62.90;;;;;;5063325;28;20028;-51
2023/08/25 07:00:33;;;;;;;9.48;6.07;;;24.80;62.90;;;;;;5067126;28;20022;-55
2023/08/25 07:03:00;;;;;;;12.27;6.75;;;24.80;63.40;;;;;;5056286;28;20096;-54
2023/08/25 07:05:25;;;;;;;10.90;6.57;;;24.90;62.90;;;;;;5063696;28;20021;-52
2023/08/25 07:07:51;;;;;;;13.23;6.70;;;24.90;62.90;;;;;;5051295;28;20092;-55
2023/08/25 07:10:18;;;;;;;11.95;6.55;;;24.80;62.90;;;;;;5056079;28;20028;-55
2023/08/25 07:12:44;;;;;;;16.52;7.22;;;24.90;63.00;;;;;;5071642;28;20531;-54
2023/08/25 07:15:10;;;;;;;13.60;7.80;;;24.90;63.10;;;;;;5071223;28;20115;-52
2023/08/25 07:17:36;;;;;;;11.70;7.35;;;24.90;63.20;;;;;;5071420;28;20024;-48
2023/08/25 07:20:06;;;;;;;12.90;8.10;;;24.90;63.30;;;;;;5063624;28;20021;-53
2023/08/25 07:22:32;;;;;;;16.55;7.68;;;25.00;63.40;;;;;;5051527;28;20033;-48
2023/08/25 07:24:58;;;;;;;15.55;7.50;;;25.00;63.40;;;;;;5067591;28;20020;-48
2023/08/25 07:27:25;;;;;;;14.27;7.07;;;25.00;63.40;;;;;;5051064;28;20039;-49
2023/08/25 07:29:53;;;;;;;14.13;7.60;;;25.00;63.40;;;;;;5051471;28;20052;-48
2023/08/25 07:32:20;;;;;;;14.55;6.90;;;25.00;63.40;;;;;;5051642;28;20059;-48
2023/08/25 07:34:46;;;;;;;13.73;7.30;;;25.10;63.40;;;;;;5033138;28;20033;-49
2023/08/25 07:37:12;;;;;;;12.55;7.53;;;25.10;63.60;;;;;;5051320;28;20439;-48
2023/08/25 07:39:39;;;;;;;12.82;7.30;;;25.10;63.50;;;;;;5051423;28;20463;-49
2023/08/25 07:42:05;;;;;;;12.88;7.57;;;25.10;63.50;;;;;;5051288;28;20096;-50
2023/08/25 07:44:31;;;;;;;12.60;6.88;;;25.10;63.40;;;;;;5051142;28;20427;-49
2023/08/25 07:46:57;;;;;;;13.30;6.60;;;25.10;63.40;;;;;;5033460;28;20109;-48
2023/08/25 07:49:23;;;;;;;11.75;6.93;;;25.20;63.40;;;;;;5051223;28;20036;-51
2023/08/25 07:51:49;;;;;;;15.70;7.05;;;25.20;63.50;;;;;;5051202;28;20029;-50
2023/08/25 07:54:15;;;;;;;12.20;6.40;;;25.20;63.60;;;;;;5050939;28;20028;-50
2023/08/25 07:56:40;;;;;;;16.40;7.07;;;25.20;63.50;;;;;;5051006;28;20051;-52
2023/08/25 07:59:07;;;;;;;16.40;7.03;;;25.30;63.70;;;;;;5051185;28;20036;-50
2023/08/25 08:01:33;;;;;;;12.30;6.57;;;25.30;63.60;;;;;;5051169;28;20037;-49
2023/08/25 08:03:59;;;;;;;10.85;6.80;;;25.30;63.30;;;;;;5050835;28;20045;-49
2023/08/25 08:06:25;;;;;;;12.38;7.07;;;25.30;63.50;;;;;;5051071;28;20480;-50
2023/08/25 08:08:50;;;;;;;12.13;6.90;;;25.30;63.40;;;;;;5051073;28;20083;-48
2023/08/25 08:11:16;;;;;;;13.95;7.10;;;25.30;63.40;;;;;;5051109;28;20057;-49
2023/08/25 08:13:42;;;;;;;14.02;7.00;;;25.30;63.10;;;;;;5050797;28;20511;-55
2023/08/25 08:16:08;;;;;;;15.15;7.00;;;25.30;63.10;;;;;;5051007;28;20025;-50
2023/08/25 08:18:34;;;;;;;16.63;7.18;;;25.40;63.10;;;;;;5050991;28;20043;-52
2023/08/25 08:20:59;;;;;;;13.10;6.75;;;25.40;63.00;;;;;;5051046;28;20060;-51
2023/08/25 08:23:25;;;;;;;16.05;6.93;;;25.40;63.10;;;;;;5049891;28;20023;-55
2023/08/25 08:25:51;;;;;;;13.20;6.88;;;25.40;62.90;;;;;;5050316;28;20021;-53
2023/08/25 08:28:17;;;;;;;12.30;6.70;;;25.50;63.00;;;;;;5039617;28;20264;-51
2023/08/25 08:30:44;;;;;;;17.75;6.88;;;25.50;63.10;;;;;;5066504;28;20024;-49
2023/08/25 08:33:10;;;;;;;21.30;6.50;;;25.50;63.10;;;;;;5052280;28;20056;-53
2023/08/25 08:35:37;;;;;;;21.75;7.40;;;25.50;63.20;;;;;;5076702;22;20105;-46
2023/08/25 08:38:03;;;;;;;25.73;8.52;;;25.50;63.40;;;;;;5045411;28;20025;-46
2023/08/25 08:40:31;;;;;;;24.33;9.75;;;25.60;63.60;;;;;;5065232;28;20103;-49
2023/08/25 08:43:02;;;;;;;18.23;9.50;;;25.70;65.10;;;;;;5062424;28;20032;-46
2023/08/25 08:45:34;;;;;;;22.65;10.48;;;25.80;65.60;;;;;;5042094;28;20112;-44
2023/08/25 08:48:04;;;;;;;30.50;9.60;;;25.90;66.20;;;;;;5061043;28;20025;-44
2023/08/25 08:50:34;;;;;;;21.98;9.95;;;25.90;66.00;;;;;;5063913;28;20056;-48
2023/08/25 08:53:00;;;;;;;14.73;8.98;;;26.00;66.70;;;;;;5048331;28;20110;-44
2023/08/25 08:55:27;;;;;;;15.35;8.18;;;26.00;68.00;;;;;;5060568;28;20029;-45
2023/08/25 08:57:53;;;;;;;23.55;8.07;;;26.00;65.80;;;;;;5060027;28;20029;-47
2023/08/25 09:00:20;;;;;;;15.60;7.88;;;26.10;65.10;;;;;;5064311;28;20074;-50
2023/08/25 09:02:51;;;;;;;18.50;7.25;;;26.00;64.10;;;;;;5066585;28;20471;-46
2023/08/25 09:05:21;;;;;;;12.07;6.88;;;26.00;64.30;;;;;;5060948;28;20103;-49
2023/08/25 09:07:52;;;;;;;19.50;7.43;;;26.00;64.70;;;;;;5067410;28;20173;-46
2023/08/25 09:10:18;;;;;;;17.02;6.82;;;26.00;64.10;;;;;;5062025;28;20024;-51
2023/08/25 09:12:44;;;;;;;17.65;7.32;;;26.00;63.80;;;;;;5068330;28;20036;-44
2023/08/25 09:15:27;;;;;;;10.65;5.85;;;26.00;63.60;;;;;;5064371;28;20288;-45
2023/08/25 09:18:00;;;;;;;13.70;6.45;;;26.00;63.50;;;;;;5061427;28;20496;-46
2023/08/25 09:20:26;;;;;;;12.40;6.28;;;26.00;63.40;;;;;;5040233;28;20090;-45
2023/08/25 09:22:56;;;;;;;11.95;6.38;;;26.00;63.30;;;;;;5066356;28;20016;-52
2023/08/25 09:25:25;;;;;;;11.68;6.68;;;26.00;63.30;;;;;;5062986;28;20012;-46
2023/08/25 09:28:00;;;;;;;15.38;5.88;;;26.00;63.40;;;;;;5061813;28;20048;-48
2023/08/25 09:30:34;;;;;;;13.02;6.10;;;26.00;63.20;;;;;;5058309;28;20028;-47
2023/08/25 09:33:18;;;;;;;9.82;5.70;;;26.00;62.90;;;;;;5066121;28;20035;-44
2023/08/25 09:35:44;;;;;;;12.20;5.68;;;26.00;62.90;;;;;;5062160;28;20579;-51
2023/08/25 09:38:28;;;;;;;11.52;5.93;;;26.00;63.40;;;;;;5063873;28;20040;-50
2023/08/25 09:40:54;;;;;;;13.95;5.97;;;26.00;62.50;;;;;;5065160;28;20099;-47
2023/08/25 09:43:30;;;;;;;12.80;6.30;;;26.00;62.50;;;;;;5065328;28;20508;-48
2023/08/25 09:45:55;;;;;;;13.98;5.93;;;26.00;62.40;;;;;;5062815;28;20073;-46
2023/08/25 09:48:24;;;;;;;13.02;6.50;;;26.00;62.40;;;;;;5066053;28;20733;-48
2023/08/25 09:50:51;;;;;;;11.68;5.75;;;26.00;63.70;;;;;;5065248;28;20021;-46
2023/08/25 09:53:18;;;;;;;11.70;5.65;;;25.90;62.50;;;;;;5065788;28;20040;-47
2023/08/25 09:55:45;;;;;;;11.85;5.95;;;25.90;62.30;;;;;;5062984;28;20032;-44
2023/08/25 09:58:14;;;;;;;15.75;5.53;;;26.00;63.10;;;;;;5065398;28;20469;-48
2023/08/25 10:00:40;;;;;;;13.73;5.85;;;25.90;63.00;;;;;;5066551;28;20533;-48
2023/08/25 10:03:08;;;;;;;9.98;5.00;;;26.00;63.60;;;;;;5066155;28;20039;-46
2023/08/25 10:05:36;;;;;;;11.48;5.10;;;25.90;63.00;;;;;;5064712;28;20032;-46
2023/08/25 10:08:02;;;;;;;14.60;5.43;;;25.90;62.70;;;;;;5063756;28;20485;-45
2023/08/25 10:10:33;;;;;;;14.05;5.43;;;25.90;62.70;;;;;;5049369;28;20040;-44
2023/08/25 10:13:03;;;;;;;11.05;5.63;;;25.90;63.00;;;;;;5066792;28;20028;-49
2023/08/25 10:15:30;;;;;;;17.55;5.63;;;25.80;63.40;;;;;;5066668;28;20036;-46
2023/08/25 10:18:09;;;;;;;13.65;5.93;;;25.90;63.70;;;;;;5063914;28;20056;-47
2023/08/25 10:20:36;;;;;;;12.35;6.65;;;25.80;63.30;;;;;;5067412;28;20029;-45
2023/08/25 10:23:08;;;;;;;12.82;6.15;;;25.90;63.60;;;;;;5067269;28;20032;-44
2023/08/25 10:25:36;;;;;;;11.32;5.80;;;25.80;63.40;;;;;;5067061;28;20024;-50
2023/08/25 10:28:05;;;;;;;11.27;5.93;;;25.80;63.00;;;;;;5065200;28;20429;-49
2023/08/25 10:30:31;;;;;;;10.23;5.95;;;25.90;62.60;;;;;;5067645;28;20048;-47
2023/08/25 10:33:07;;;;;;;13.05;6.03;;;25.90;62.40;;;;;;5067695;28;20087;-47
2023/08/25 10:35:44;;;;;;;9.93;6.10;;;25.90;62.50;;;;;;5067414;28;20039;-48
2023/08/25 10:38:19;;;;;;;13.98;6.20;;;25.90;62.40;;;;;;5063970;28;20029;-47
2023/08/25 10:40:52;;;;;;;12.25;5.50;;;25.80;61.80;;;;;;5067525;28;20031;-50
2023/08/25 10:43:32;;;;;;;14.68;6.10;;;25.80;62.00;;;;;;5065860;28;20486;-48
2023/08/25 10:46:01;;;;;;;9.73;5.70;;;25.80;63.20;;;;;;5065703;28;20099;-45
2023/08/25 10:48:27;;;;;;;10.73;5.90;;;25.80;62.40;;;;;;5049285;28;20024;-45
2023/08/25 10:51:06;;;;;;;14.65;5.68;;;25.80;62.70;;;;;;5066745;28;20083;-45
2023/08/25 10:53:42;;;;;;;10.65;5.63;;;25.80;62.80;;;;;;5066734;28;20114;-46
2023/08/25 10:56:17;;;;;;;13.10;6.00;;;25.80;62.60;;;;;;5065817;28;20036;-44
2023/08/25 10:58:55;;;;;;;12.48;5.25;;;25.70;62.90;;;;;;5066410;28;20146;-46
2023/08/25 11:01:33;;;;;;;17.23;6.25;;;25.80;63.80;;;;;;5067323;28;20143;-47
2023/08/25 11:04:12;;;;;;;18.55;5.90;;;25.70;63.40;;;;;;5065859;28;20028;-51
2023/08/25 11:06:40;;;;;;;10.85;5.82;;;25.70;63.80;;;;;;5044879;28;20028;-50
2023/08/25 11:09:30;;;;;;;12.80;5.88;;;25.70;63.50;;;;;;5067435;28;20064;-46
2023/08/25 11:12:07;;;;;;;11.73;5.50;;;25.70;63.40;;;;;;5068472;28;20032;-50
2023/08/25 11:14:35;;;;;;;10.63;5.38;;;25.70;63.30;;;;;;5044540;28;20091;-49
2023/08/25 11:17:04;;;;;;;13.60;5.28;;;25.70;63.80;;;;;;5058600;28;20115;-50
2023/08/25 11:19:32;;;;;;;19.27;5.35;;;25.70;63.60;;;;;;5061099;28;20027;-46
2023/08/25 11:22:00;;;;;;;9.70;5.22;;;25.70;64.50;;;;;;5060789;28;20020;-52
2023/08/25 11:24:27;;;;;;;14.45;5.40;;;25.70;64.50;;;;;;5060349;28;20020;-49
2023/08/25 11:26:53;;;;;;;18.33;6.22;;;25.70;64.50;;;;;;5058038;28;20024;-51
2023/08/25 11:29:19;;;;;;;17.67;5.97;;;25.70;64.20;;;;;;5066830;28;20020;-49
2023/08/25 11:31:44;;;;;;;17.20;6.15;;;25.80;64.80;;;;;;5064527;28;20571;-46
2023/08/25 11:34:10;;;;;;;21.23;6.43;;;25.70;64.90;;;;;;5064624;28;20032;-47
2023/08/25 11:36:36;;;;;;;8.80;6.18;;;25.80;64.70;;;;;;5065306;28;20042;-44
2023/08/25 11:39:02;;;;;;;10.73;6.10;;;25.70;64.30;;;;;;5063476;28;20052;-49
2023/08/25 11:41:29;;;;;;;16.38;5.68;;;25.80;64.30;;;;;;5048323;28;20025;-46
2023/08/25 11:43:55;;;;;;;17.73;5.97;;;25.80;64.50;;;;;;5064558;28;20054;-47
2023/08/25 11:46:21;;;;;;;12.90;5.85;;;25.90;64.50;;;;;;5060007;28;20035;-44
2023/08/25 11:48:51;;;;;;;10.35;5.43;;;25.80;64.40;;;;;;5059112;28;20457;-44
2023/08/25 11:51:18;;;;;;;12.23;4.95;;;25.80;64.40;;;;;;5062362;28;20052;-46
2023/08/25 11:53:45;;;;;;;16.80;5.53;;;25.80;64.40;;;;;;5063444;28;20028;-47
2023/08/25 11:56:16;;;;;;;11.27;5.28;;;25.80;64.50;;;;;;5062230;28;20452;-46
2023/08/25 11:58:47;;;;;;;11.52;5.38;;;25.80;64.70;;;;;;5059509;28;20029;-44
2023/08/25 12:01:14;;;;;;;14.82;5.60;;;25.80;64.70;;;;;;5062318;28;20025;-45
2023/08/25 12:03:44;;;;;;;15.45;5.75;;;25.70;64.80;;;;;;5063235;28;20096;-44
2023/08/25 12:06:11;;;;;;;14.57;5.30;;;25.70;64.70;;;;;;5063275;28;20097;-49
2023/08/25 12:08:41;;;;;;;9.95;5.25;;;25.80;64.80;;;;;;5060300;28;20511;-44
2023/08/25 12:11:10;;;;;;;9.70;5.47;;;25.80;64.50;;;;;;5062209;28;20025;-45
2023/08/25 12:13:44;;;;;;;12.93;5.82;;;25.80;64.50;;;;;;5064836;28;20028;-44
2023/08/25 12:16:13;;;;;;;9.95;5.80;;;25.80;64.10;;;;;;5067757;28;20112;-44
2023/08/25 12:18:42;;;;;;;14.15;5.82;;;25.80;63.90;;;;;;5064654;28;20044;-46
2023/08/25 12:21:08;;;;;;;15.75;6.55;;;25.80;64.30;;;;;;5066291;28;20033;-48
2023/08/25 12:23:38;;;;;;;13.43;6.03;;;25.80;63.70;;;;;;5067309;28;20033;-44
2023/08/25 12:26:08;;;;;;;13.57;5.95;;;25.80;63.80;;;;;;5067576;28;20569;-48
2023/08/25 12:28:34;;;;;;;14.07;6.65;;;25.80;64.00;;;;;;5066368;28;20025;-45
2023/08/25 12:31:01;;;;;;;9.38;5.75;;;25.80;63.90;;;;;;5065783;28;20021;-46
2023/08/25 12:33:30;;;;;;;12.13;5.93;;;25.90;63.90;;;;;;5067765;28;20035;-47
2023/08/25 12:35:58;;;;;;;15.73;5.85;;;25.80;64.40;;;;;;5068220;28;20063;-48
2023/08/25 12:38:24;;;;;;;12.93;5.90;;;25.90;64.80;;;;;;5068314;28;20507;-49
2023/08/25 12:40:50;;;;;;;10.07;5.43;;;25.90;64.80;;;;;;5065001;28;20379;-45
2023/08/25 12:43:16;;;;;;;12.15;6.05;;;25.80;64.30;;;;;;5067812;28;20024;-47